createdAt,value
2023-02-08T00:00:42.706Z,-6.30
2023-02-08T00:03:09.378Z,-6.30
2023-02-08T00:05:36.491Z,-6.30
2023-02-08T00:08:03.205Z,-6.30
2023-02-08T00:10:29.976Z,-6.30
2023-02-08T00:12:56.654Z,-6.30
2023-02-08T00:15:23.306Z,-6.30
2023-02-08T00:17:49.981Z,-6.40
2023-02-08T00:20:17.030Z,-6.40
2023-02-08T00:22:43.936Z,-6.30
2023-02-08T00:25:10.766Z,-6.30
2023-02-08T00:27:37.480Z,-6.30
2023-02-08T00:30:05.254Z,-6.20
2023-02-08T00:32:32.034Z,-6.20
2023-02-08T00:34:58.768Z,-6.20
2023-02-08T00:37:25.426Z,-6.30
2023-02-08T00:39:52.125Z,-6.40
2023-02-08T00:42:18.909Z,-6.70
2023-02-08T00:44:45.595Z,-6.70
2023-02-08T00:47:12.277Z,-6.70
2023-02-08T00:49:38.939Z,-6.70
2023-02-08T00:52:05.682Z,-6.70
2023-02-08T00:54:32.336Z,-6.80
2023-02-08T00:56:59.060Z,-6.90
2023-02-08T00:59:25.881Z,-6.80
2023-02-08T01:01:52.563Z,-6.80
2023-02-08T01:04:19.280Z,-6.90
2023-02-08T01:06:47.365Z,-6.90
2023-02-08T01:09:14.131Z,-6.90
2023-02-08T01:11:40.863Z,-6.90
2023-02-08T01:14:07.548Z,-6.90
2023-02-08T01:16:37.192Z,-6.90
2023-02-08T01:19:05.214Z,-6.90
2023-02-08T01:21:37.820Z,-6.90
2023-02-08T01:24:05.474Z,-6.80
2023-02-08T01:26:32.446Z,-6.80
2023-02-08T01:28:59.708Z,-6.80
2023-02-08T01:31:29.700Z,-6.80
2023-02-08T01:33:57.984Z,-6.80
2023-02-08T01:36:25.609Z,-6.90
2023-02-08T01:38:52.460Z,-6.90
2023-02-08T01:41:22.703Z,-6.90
2023-02-08T01:44:13.789Z,-6.80
2023-02-08T01:46:43.476Z,-6.80
2023-02-08T01:49:18.463Z,-6.80
2023-02-08T01:52:01.159Z,-6.80
2023-02-08T01:54:31.921Z,-6.90
2023-02-08T01:56:58.840Z,-6.90
2023-02-08T01:59:42.203Z,-6.90
2023-02-08T02:02:12.609Z,-7.00
2023-02-08T02:04:39.748Z,-7.10
2023-02-08T02:07:07.123Z,-7.20
2023-02-08T02:09:42.498Z,-7.30
2023-02-08T02:12:09.721Z,-7.30
2023-02-08T02:14:38.829Z,-7.30
2023-02-08T02:17:06.459Z,-7.40
2023-02-08T02:19:40.105Z,-7.40
2023-02-08T02:22:32.560Z,-7.40
2023-02-08T02:25:17.568Z,-7.40
2023-02-08T02:28:13.497Z,-7.40
2023-02-08T02:31:11.484Z,-7.40
2023-02-08T02:33:46.911Z,-7.40
2023-02-08T02:36:32.571Z,-7.40
2023-02-08T02:39:04.816Z,-7.40
2023-02-08T02:42:26.164Z,-7.40
2023-02-08T02:45:17.362Z,-7.40
2023-02-08T02:47:55.826Z,-7.50
2023-02-08T02:50:31.346Z,-7.50
2023-02-08T02:53:14.969Z,-7.50
2023-02-08T02:55:47.016Z,-7.50
2023-02-08T02:58:16.679Z,-7.50
2023-02-08T03:00:43.650Z,-7.40
2023-02-08T03:03:23.189Z,-7.50
2023-02-08T03:05:52.354Z,-7.40
2023-02-08T03:08:31.311Z,-7.50
2023-02-08T03:11:20.583Z,-7.60
2023-02-08T03:14:01.495Z,-7.70
2023-02-08T03:16:33.909Z,-7.70
2023-02-08T03:19:06.466Z,-7.70
2023-02-08T03:22:01.842Z,-7.70
2023-02-08T03:24:54.273Z,-7.70
2023-02-08T03:27:26.935Z,-7.70
2023-02-08T03:30:17.495Z,-7.60
2023-02-08T03:32:55.116Z,-7.60
2023-02-08T03:35:25.164Z,-7.60
2023-02-08T03:38:00.572Z,-7.60
2023-02-08T03:40:31.699Z,-7.60
2023-02-08T03:43:03.070Z,-7.70
2023-02-08T03:45:40.230Z,-7.70
2023-02-08T03:48:09.630Z,-7.70
2023-02-08T03:50:40.005Z,-7.60
2023-02-08T03:53:08.692Z,-7.60
2023-02-08T03:55:37.415Z,-7.60
2023-02-08T03:58:04.041Z,-7.60
2023-02-08T04:00:34.063Z,-7.60
2023-02-08T04:03:17.149Z,-7.60
2023-02-08T04:05:44.382Z,-7.50
2023-02-08T04:08:11.172Z,-7.50
2023-02-08T04:10:38.320Z,-7.40
2023-02-08T04:13:05.187Z,-7.40
2023-02-08T04:15:31.901Z,-7.40
2023-02-08T04:17:58.584Z,-7.40
2023-02-08T04:20:25.257Z,-7.30
2023-02-08T04:22:51.945Z,-7.30
2023-02-08T04:25:18.833Z,-7.20
2023-02-08T04:27:45.526Z,-7.20
2023-02-08T04:30:12.716Z,-7.20
2023-02-08T04:32:39.430Z,-7.30
2023-02-08T04:35:06.540Z,-7.30
2023-02-08T04:37:34.217Z,-7.30
2023-02-08T04:40:00.857Z,-7.30
2023-02-08T04:42:27.830Z,-7.30
2023-02-08T04:44:54.508Z,-7.30
2023-02-08T04:47:21.786Z,-7.40
2023-02-08T04:49:48.477Z,-7.40
2023-02-08T04:52:15.201Z,-7.40
2023-02-08T04:54:41.827Z,-7.40
2023-02-08T04:57:12.894Z,-7.40
2023-02-08T04:59:39.886Z,-7.40
2023-02-08T05:02:06.694Z,-7.40
2023-02-08T05:04:33.426Z,-7.40
2023-02-08T05:07:00.356Z,-7.40
2023-02-08T05:09:27.047Z,-7.40
2023-02-08T05:11:53.829Z,-7.40
2023-02-08T05:14:20.504Z,-7.40
2023-02-08T05:16:47.218Z,-7.50
2023-02-08T05:19:14.444Z,-7.50
2023-02-08T05:21:41.143Z,-7.50
2023-02-08T05:24:07.894Z,-7.50
2023-02-08T05:26:34.604Z,-7.50
2023-02-08T05:29:01.245Z,-7.50
2023-02-08T05:31:28.071Z,-7.50
2023-02-08T05:33:54.993Z,-7.50
2023-02-08T05:36:23.246Z,-7.50
2023-02-08T05:38:50.149Z,-7.60
2023-02-08T05:41:17.657Z,-7.60
2023-02-08T05:43:45.868Z,-7.60
2023-02-08T05:46:12.580Z,-7.70
2023-02-08T05:48:39.253Z,-7.60
2023-02-08T05:51:06.104Z,-7.70
2023-02-08T05:53:32.815Z,-7.80
2023-02-08T05:55:59.468Z,-7.80
2023-02-08T05:58:26.519Z,-7.80
2023-02-08T06:00:53.486Z,-7.90
2023-02-08T06:03:20.676Z,-8.00
2023-02-08T06:05:47.942Z,-8.00
2023-02-08T06:08:15.540Z,-8.00
2023-02-08T06:10:42.710Z,-8.00
2023-02-08T06:13:09.493Z,-8.00
2023-02-08T06:15:36.185Z,-8.00
2023-02-08T06:18:03.156Z,-8.00
2023-02-08T06:20:29.798Z,-8.00
2023-02-08T06:22:56.483Z,-8.00
2023-02-08T06:25:23.209Z,-8.00
2023-02-08T06:27:49.938Z,-8.00
2023-02-08T06:30:16.841Z,-8.00
2023-02-08T06:32:43.553Z,-8.10
2023-02-08T06:35:10.424Z,-8.00
2023-02-08T06:37:37.111Z,-8.10
2023-02-08T06:40:04.874Z,-8.10
2023-02-08T06:42:31.662Z,-8.10
2023-02-08T06:44:58.945Z,-8.10
2023-02-08T06:47:26.810Z,-8.10
2023-02-08T06:49:53.900Z,-8.10
2023-02-08T06:52:21.283Z,-8.00
2023-02-08T06:54:47.991Z,-8.00
2023-02-08T06:57:14.799Z,-8.00
2023-02-08T06:59:42.309Z,-7.90
2023-02-08T07:02:20.128Z,-7.80
2023-02-08T07:04:47.622Z,-7.80
2023-02-08T07:07:15.869Z,-7.90
2023-02-08T07:09:43.157Z,-7.80
2023-02-08T07:12:10.406Z,-7.70
2023-02-08T07:14:40.710Z,-7.70
2023-02-08T07:17:07.502Z,-7.70
2023-02-08T07:19:34.199Z,-7.50
2023-02-08T07:22:07.262Z,-7.50
2023-02-08T07:24:38.890Z,-7.60
2023-02-08T07:27:07.734Z,-7.40
2023-02-08T07:29:34.850Z,-7.30
2023-02-08T07:32:03.201Z,-7.40
2023-02-08T07:34:31.211Z,-7.20
2023-02-08T07:36:58.103Z,-7.20
2023-02-08T07:39:25.028Z,-7.00
2023-02-08T07:41:52.143Z,-6.80
2023-02-08T07:44:19.283Z,-6.70
2023-02-08T07:46:45.962Z,-6.60
2023-02-08T07:49:12.651Z,-6.40
2023-02-08T07:51:39.385Z,-6.30
2023-02-08T07:54:06.065Z,-6.10
2023-02-08T07:56:32.761Z,-6.10
2023-02-08T07:58:59.472Z,-6.00
2023-02-08T08:01:26.200Z,-5.90
2023-02-08T08:03:53.063Z,-5.70
2023-02-08T08:06:20.847Z,-5.50
2023-02-08T08:08:47.883Z,-5.40
2023-02-08T08:11:15.556Z,-5.30
2023-02-08T08:13:42.516Z,-5.10
2023-02-08T08:16:09.344Z,-5.00
2023-02-08T08:18:36.105Z,-4.90
2023-02-08T08:21:03.548Z,-4.80
2023-02-08T08:23:32.981Z,-4.70
2023-02-08T08:26:00.244Z,-4.70
2023-02-08T08:28:27.524Z,-4.60
2023-02-08T08:30:54.547Z,-4.40
2023-02-08T08:33:21.333Z,-4.40
2023-02-08T08:35:48.122Z,-4.40
2023-02-08T08:38:14.829Z,-4.30
2023-02-08T08:40:41.956Z,-4.30
2023-02-08T08:43:08.896Z,-4.20
2023-02-08T08:45:36.222Z,-4.00
2023-02-08T08:48:06.165Z,-4.00
2023-02-08T08:50:32.860Z,-3.90
2023-02-08T08:52:59.577Z,-3.90
2023-02-08T08:55:27.793Z,-3.90
2023-02-08T08:57:54.985Z,-3.80
2023-02-08T09:00:22.040Z,-3.80
2023-02-08T09:02:48.975Z,-3.80
2023-02-08T09:05:15.790Z,-3.70
2023-02-08T09:07:42.434Z,-3.60
2023-02-08T09:10:09.199Z,-3.50
2023-02-08T09:12:36.531Z,-3.40
2023-02-08T09:15:03.771Z,-3.50
2023-02-08T09:17:30.517Z,-3.50
2023-02-08T09:19:57.169Z,-3.50
2023-02-08T09:22:24.762Z,-3.40
2023-02-08T09:24:53.705Z,-3.30
2023-02-08T09:27:20.400Z,-3.30
2023-02-08T09:29:47.113Z,-3.30
2023-02-08T09:32:13.897Z,-3.20
2023-02-08T09:34:40.648Z,-3.10
2023-02-08T09:37:07.380Z,-3.00
2023-02-08T09:39:34.941Z,-3.00
2023-02-08T09:42:08.790Z,-2.80
2023-02-08T09:45:02.892Z,-2.70
2023-02-08T09:47:36.685Z,-2.60
2023-02-08T09:50:32.460Z,-2.50
2023-02-08T09:53:13.933Z,-2.40
2023-02-08T09:55:47.959Z,-2.30
2023-02-08T09:58:34.188Z,-2.40
2023-02-08T10:01:02.743Z,-2.50
2023-02-08T10:03:44.926Z,-2.50
2023-02-08T10:06:17.701Z,-2.40
2023-02-08T10:08:46.100Z,-2.20
2023-02-08T10:11:37.389Z,-2.00
2023-02-08T10:14:27.261Z,-1.80
2023-02-08T10:17:03.039Z,-1.80
2023-02-08T10:19:46.568Z,-1.80
2023-02-08T10:22:19.850Z,-1.70
2023-02-08T10:24:52.302Z,-1.60
2023-02-08T10:27:31.116Z,-1.50
2023-02-08T10:30:34.445Z,-1.60
2023-02-08T10:33:17.634Z,-1.40
2023-02-08T10:35:49.914Z,-1.10
2023-02-08T10:38:19.674Z,-1.20
2023-02-08T10:40:49.361Z,-1.40
2023-02-08T10:43:24.052Z,-1.40
2023-02-08T10:46:04.747Z,-1.30
2023-02-08T10:49:16.030Z,-1.20
2023-02-08T10:51:43.022Z,-1.20
2023-02-08T10:54:14.375Z,-1.10
2023-02-08T10:56:46.457Z,-1.00
2023-02-08T10:59:27.421Z,-0.70
2023-02-08T11:01:56.215Z,-0.60
2023-02-08T11:04:23.011Z,-0.40
2023-02-08T11:06:51.343Z,-0.30
2023-02-08T11:09:29.824Z,-0.30
2023-02-08T11:11:59.837Z,-0.30
2023-02-08T11:14:46.170Z,-0.40
2023-02-08T11:17:31.263Z,-0.30
2023-02-08T11:19:59.367Z,-0.20
2023-02-08T11:22:31.185Z,-0.20
2023-02-08T11:25:03.876Z,-0.20
2023-02-08T11:27:36.621Z,-0.20
2023-02-08T11:30:18.149Z,-0.20
2023-02-08T11:32:46.992Z,-0.10
2023-02-08T11:35:22.843Z,0.10
2023-02-08T11:37:54.740Z,0.30
2023-02-08T11:40:43.799Z,0.40
2023-02-08T11:43:30.159Z,0.40
2023-02-08T11:45:58.826Z,0.30
2023-02-08T11:48:50.006Z,0.70
2023-02-08T11:51:34.554Z,0.90
2023-02-08T11:54:02.213Z,1.10
2023-02-08T11:56:34.064Z,1.00
2023-02-08T11:59:12.594Z,1.20
2023-02-08T12:01:41.398Z,1.20
2023-02-08T12:04:12.474Z,1.40
2023-02-08T12:06:49.954Z,1.60
2023-02-08T12:09:34.311Z,1.70
2023-02-08T12:12:15.570Z,1.80
2023-02-08T12:14:53.708Z,1.80
2023-02-08T12:17:35.436Z,1.80
2023-02-08T12:20:34.347Z,1.60
2023-02-08T12:23:09.867Z,1.70
2023-02-08T12:25:39.485Z,1.80
2023-02-08T12:28:29.417Z,2.00
2023-02-08T12:31:33.822Z,2.30
2023-02-08T12:34:45.563Z,2.20
2023-02-08T12:37:53.240Z,2.40
2023-02-08T12:40:38.702Z,2.30
2023-02-08T12:43:20.805Z,2.40
2023-02-08T12:46:17.168Z,2.30
2023-02-08T12:48:49.744Z,2.60
2023-02-08T12:51:24.489Z,2.70
2023-02-08T12:53:57.749Z,3.00
2023-02-08T12:56:28.608Z,3.20
2023-02-08T12:59:08.296Z,3.40
2023-02-08T13:01:53.865Z,3.50
2023-02-08T13:04:34.974Z,3.50
2023-02-08T13:07:18.537Z,3.90
2023-02-08T13:10:18.245Z,4.00
2023-02-08T13:12:51.574Z,3.60
2023-02-08T13:15:38.307Z,3.50
2023-02-08T13:18:12.136Z,3.40
2023-02-08T13:20:40.941Z,3.50
2023-02-08T13:23:25.727Z,3.70
2023-02-08T13:26:02.457Z,3.70
2023-02-08T13:28:29.585Z,3.80
2023-02-08T13:31:04.310Z,4.00
2023-02-08T13:34:00.531Z,3.70
2023-02-08T13:36:35.635Z,3.70
2023-02-08T13:39:05.398Z,3.90
2023-02-08T13:41:33.621Z,3.70
2023-02-08T13:44:09.251Z,3.70
2023-02-08T13:46:43.875Z,3.80
2023-02-08T13:49:49.121Z,4.00
2023-02-08T13:52:46.920Z,4.30
2023-02-08T13:55:36.000Z,4.60
2023-02-08T13:58:15.987Z,4.80
2023-02-08T14:00:54.961Z,5.10
2023-02-08T14:03:22.837Z,5.40
2023-02-08T14:06:05.785Z,6.20
2023-02-08T14:08:38.890Z,7.30
2023-02-08T14:11:32.413Z,8.80
2023-02-08T14:14:21.709Z,11.30
2023-02-08T14:17:03.746Z,14.10
2023-02-08T14:19:32.405Z,15.80
2023-02-08T14:22:11.083Z,16.40
2023-02-08T14:24:43.546Z,16.80
2023-02-08T14:27:10.118Z,17.60
2023-02-08T14:29:37.229Z,17.90
2023-02-08T14:32:05.019Z,18.00
2023-02-08T14:34:35.784Z,18.10
2023-02-08T14:37:04.715Z,18.40
2023-02-08T14:39:34.575Z,19.20
2023-02-08T14:42:08.504Z,19.70
2023-02-08T14:44:38.277Z,19.00
2023-02-08T14:47:25.886Z,18.00
2023-02-08T14:50:13.701Z,17.10
2023-02-08T14:52:47.081Z,16.80
2023-02-08T14:55:26.468Z,16.20
2023-02-08T14:58:00.633Z,16.10
2023-02-08T15:00:33.871Z,15.70
2023-02-08T15:03:03.631Z,14.70
2023-02-08T15:05:35.675Z,14.90
2023-02-08T15:08:03.215Z,14.70
2023-02-08T15:10:32.051Z,15.30
2023-02-08T15:13:03.583Z,14.70
2023-02-08T15:15:36.614Z,13.50
2023-02-08T15:18:06.008Z,13.00
2023-02-08T15:20:35.297Z,13.90
2023-02-08T15:23:22.507Z,14.30
2023-02-08T15:26:02.363Z,14.80
2023-02-08T15:28:30.880Z,14.40
2023-02-08T15:31:09.763Z,14.70
2023-02-08T15:33:43.457Z,14.40
2023-02-08T15:36:28.062Z,14.70
2023-02-08T15:38:56.811Z,14.40
2023-02-08T15:41:34.176Z,14.10
2023-02-08T15:44:25.509Z,13.30
2023-02-08T15:49:33.688Z,10.80
2023-02-08T15:52:01.413Z,9.00
2023-02-08T15:54:28.358Z,6.80
2023-02-08T15:57:22.656Z,5.40
2023-02-08T15:59:49.974Z,4.10
2023-02-08T16:02:21.604Z,3.00
2023-02-08T16:04:48.468Z,2.30
2023-02-08T16:07:43.545Z,1.90
2023-02-08T16:10:23.507Z,1.50
2023-02-08T16:12:59.173Z,1.00
2023-02-08T16:15:37.388Z,0.70
2023-02-08T16:18:04.439Z,0.40
2023-02-08T16:20:34.891Z,0.20
2023-02-08T16:23:02.967Z,0.10
2023-02-08T16:25:29.557Z,0.10
2023-02-08T16:27:56.338Z,-0.10
2023-02-08T16:30:24.130Z,-0.20
2023-02-08T16:32:51.006Z,-0.50
2023-02-08T16:35:29.398Z,-0.60
2023-02-08T16:38:00.068Z,-0.80
2023-02-08T16:40:41.997Z,-1.00
2023-02-08T16:43:26.010Z,-1.00
2023-02-08T16:46:17.734Z,-1.20
2023-02-08T16:48:55.878Z,-1.30
2023-02-08T16:51:26.686Z,-1.50
2023-02-08T16:53:56.443Z,-1.60
2023-02-08T16:56:24.103Z,-1.70
2023-02-08T16:58:51.066Z,-1.70
2023-02-08T17:01:23.205Z,-1.60
2023-02-08T17:03:50.417Z,-1.70
2023-02-08T17:06:30.757Z,-1.70
2023-02-08T17:08:58.418Z,-1.70
2023-02-08T17:11:25.649Z,-1.70
2023-02-08T17:13:52.371Z,-1.80
2023-02-08T17:16:25.451Z,-1.90
2023-02-08T17:18:53.178Z,-1.90
2023-02-08T17:21:19.905Z,-2.00
2023-02-08T17:23:47.010Z,-2.00
2023-02-08T17:26:23.006Z,-2.00
2023-02-08T17:28:50.272Z,-2.00
2023-02-08T17:31:17.336Z,-2.10
2023-02-08T17:33:44.142Z,-2.20
2023-02-08T17:36:13.689Z,-2.20
2023-02-08T17:38:42.610Z,-2.30
2023-02-08T17:41:18.061Z,-2.40
2023-02-08T17:43:45.314Z,-2.50
2023-02-08T17:46:15.405Z,-2.50
2023-02-08T17:48:42.391Z,-2.60
2023-02-08T17:51:20.890Z,-2.60
2023-02-08T17:53:47.827Z,-2.60
2023-02-08T17:56:20.411Z,-2.50
2023-02-08T17:58:51.306Z,-2.60
2023-02-08T18:01:22.878Z,-2.60
2023-02-08T18:03:51.147Z,-2.70
2023-02-08T18:06:18.924Z,-2.80
2023-02-08T18:08:46.109Z,-2.80
2023-02-08T18:11:17.877Z,-2.80
2023-02-08T18:13:45.456Z,-2.80
2023-02-08T18:16:16.478Z,-2.80
2023-02-08T18:18:43.764Z,-2.90
2023-02-08T18:21:12.110Z,-3.00
2023-02-08T18:23:39.453Z,-3.10
2023-02-08T18:26:12.780Z,-3.10
2023-02-08T18:28:39.440Z,-3.10
2023-02-08T18:31:14.394Z,-3.00
2023-02-08T18:33:43.514Z,-3.00
2023-02-08T18:36:11.484Z,-3.10
2023-02-08T18:38:40.122Z,-3.20
2023-02-08T18:41:11.010Z,-3.30
2023-02-08T18:43:39.323Z,-3.30
2023-02-08T18:46:09.866Z,-3.40
2023-02-08T18:48:37.899Z,-3.40
2023-02-08T18:51:06.480Z,-3.50
2023-02-08T18:53:35.537Z,-3.60
2023-02-08T18:56:03.498Z,-3.60
2023-02-08T18:58:31.497Z,-3.70
2023-02-08T19:01:14.537Z,-3.70
2023-02-08T19:03:41.681Z,-3.70
2023-02-08T19:06:11.251Z,-3.70
2023-02-08T19:08:40.212Z,-3.70
2023-02-08T19:11:15.720Z,-3.70
2023-02-08T19:13:42.415Z,-3.90
2023-02-08T19:16:09.511Z,-3.90
2023-02-08T19:18:36.454Z,-4.00
2023-02-08T19:21:05.615Z,-4.00
2023-02-08T19:23:32.468Z,-4.00
2023-02-08T19:26:08.361Z,-4.20
2023-02-08T19:28:35.678Z,-4.30
2023-02-08T19:31:10.519Z,-4.40
2023-02-08T19:33:39.701Z,-4.50
2023-02-08T19:36:18.538Z,-4.50
2023-02-08T19:38:46.482Z,-4.50
2023-02-08T19:41:20.320Z,-4.60
2023-02-08T19:43:47.506Z,-4.70
2023-02-08T19:46:17.143Z,-4.90
2023-02-08T19:48:43.894Z,-4.90
2023-02-08T19:51:10.727Z,-5.00
2023-02-08T19:53:37.779Z,-4.90
2023-02-08T19:56:11.142Z,-5.00
2023-02-08T19:58:38.184Z,-5.00
2023-02-08T20:01:09.151Z,-5.00
2023-02-08T20:03:36.362Z,-5.00
2023-02-08T20:06:03.161Z,-5.00
2023-02-08T20:08:30.004Z,-5.10
2023-02-08T20:10:56.721Z,-5.30
2023-02-08T20:13:23.766Z,-5.30
2023-02-08T20:15:50.497Z,-5.20
2023-02-08T20:18:17.700Z,-5.30
2023-02-08T20:20:44.520Z,-5.30
2023-02-08T20:23:22.465Z,-5.40
2023-02-08T20:25:49.732Z,-5.60
2023-02-08T20:28:16.422Z,-5.70
2023-02-08T20:30:43.123Z,-5.90
2023-02-08T20:33:09.808Z,-6.00
2023-02-08T20:35:36.867Z,-6.00
2023-02-08T20:38:03.580Z,-6.00
2023-02-08T20:40:31.516Z,-6.00
2023-02-08T20:42:58.180Z,-5.90
2023-02-08T20:45:24.994Z,-5.90
2023-02-08T20:47:51.685Z,-5.90
2023-02-08T20:50:20.257Z,-6.00
2023-02-08T20:52:48.107Z,-6.00
2023-02-08T20:55:14.997Z,-6.20
2023-02-08T20:57:41.681Z,-6.20
2023-02-08T21:00:09.146Z,-6.40
2023-02-08T21:02:35.850Z,-6.40
2023-02-08T21:05:02.609Z,-6.40
2023-02-08T21:07:29.280Z,-6.30
2023-02-08T21:09:55.954Z,-6.20
2023-02-08T21:12:22.602Z,-6.20
2023-02-08T21:14:49.509Z,-6.30
2023-02-08T21:17:16.176Z,-6.30
2023-02-08T21:19:42.849Z,-6.30
2023-02-08T21:22:09.846Z,-6.20
2023-02-08T21:24:36.497Z,-6.40
2023-02-08T21:27:03.169Z,-6.50
2023-02-08T21:29:30.994Z,-6.50
2023-02-08T21:31:58.518Z,-6.60
2023-02-08T21:34:25.260Z,-6.60
2023-02-08T21:36:51.986Z,-6.70
2023-02-08T21:39:18.787Z,-6.80
2023-02-08T21:41:45.476Z,-6.80
2023-02-08T21:44:12.196Z,-6.90
2023-02-08T21:46:38.844Z,-6.90
2023-02-08T21:49:34.535Z,-7.00
2023-02-08T21:52:19.862Z,-7.00
2023-02-08T21:54:46.788Z,-7.10
2023-02-08T21:57:22.704Z,-7.00
2023-02-08T21:59:52.555Z,-7.00
2023-02-08T22:02:25.688Z,-6.90
2023-02-08T22:04:54.940Z,-7.00
2023-02-08T22:07:23.818Z,-7.10
2023-02-08T22:09:50.925Z,-7.10
2023-02-08T22:12:20.795Z,-7.10
2023-02-08T22:14:48.992Z,-7.00
2023-02-08T22:17:16.108Z,-7.00
2023-02-08T22:19:43.286Z,-7.20
2023-02-08T22:22:11.132Z,-7.20
2023-02-08T22:24:37.902Z,-7.30
2023-02-08T22:27:04.614Z,-7.30
2023-02-08T22:29:31.444Z,-7.40
2023-02-08T22:32:00.403Z,-7.50
2023-02-08T22:34:27.584Z,-7.70
2023-02-08T22:36:54.593Z,-7.70
2023-02-08T22:39:21.650Z,-7.60
2023-02-08T22:41:48.402Z,-7.60
2023-02-08T22:44:15.184Z,-7.60
2023-02-08T22:46:41.861Z,-7.70
2023-02-08T22:49:08.897Z,-7.70
2023-02-08T22:51:35.721Z,-7.70
2023-02-08T22:54:02.579Z,-7.70
2023-02-08T22:56:29.392Z,-7.70
2023-02-08T22:58:56.329Z,-7.70
2023-02-08T23:01:23.093Z,-7.60
2023-02-08T23:03:50.151Z,-7.70
2023-02-08T23:06:17.359Z,-7.70
2023-02-08T23:08:44.550Z,-7.70
2023-02-08T23:11:13.706Z,-7.80
2023-02-08T23:13:40.661Z,-7.90
2023-02-08T23:16:07.617Z,-8.00
2023-02-08T23:18:35.583Z,-8.00
2023-02-08T23:21:07.281Z,-8.00
2023-02-08T23:23:34.141Z,-8.00
2023-02-08T23:26:04.522Z,-8.00
2023-02-08T23:28:31.255Z,-7.80
2023-02-08T23:30:58.160Z,-7.80
2023-02-08T23:33:24.846Z,-7.70
2023-02-08T23:35:51.506Z,-7.70
2023-02-08T23:38:18.166Z,-7.90
2023-02-08T23:40:45.021Z,-8.20
2023-02-08T23:43:11.833Z,-8.30
2023-02-08T23:45:38.499Z,-8.50
2023-02-08T23:48:05.268Z,-8.50
2023-02-08T23:50:32.145Z,-8.60
2023-02-08T23:52:58.818Z,-8.60
2023-02-08T23:55:25.507Z,-8.60
2023-02-08T23:57:52.200Z,-8.50
